createdAt,value
2018-03-29T00:01:53.952Z,99.90
2018-03-29T00:04:22.175Z,99.90
2018-03-29T00:06:48.820Z,99.90
2018-03-29T00:09:15.831Z,99.90
2018-03-29T00:11:43.357Z,99.90
2018-03-29T00:14:10.339Z,99.90
2018-03-29T00:16:38.137Z,99.90
2018-03-29T00:19:06.156Z,99.90
2018-03-29T00:21:33.033Z,99.90
2018-03-29T00:24:00.456Z,99.90
2018-03-29T00:26:27.124Z,99.90
2018-03-29T00:28:53.908Z,99.90
2018-03-29T00:31:20.960Z,99.90
2018-03-29T00:33:47.651Z,99.90
2018-03-29T00:36:14.343Z,99.90
2018-03-29T00:38:41.033Z,99.90
2018-03-29T00:41:07.857Z,99.90
2018-03-29T00:43:34.537Z,99.90
2018-03-29T00:46:01.204Z,99.90
2018-03-29T00:48:28.691Z,99.90
2018-03-29T00:50:55.338Z,99.90
2018-03-29T00:53:34.471Z,99.90
2018-03-29T00:56:01.626Z,99.90
2018-03-29T00:58:28.261Z,99.90
2018-03-29T01:00:55.052Z,99.90
2018-03-29T01:03:21.740Z,99.90
2018-03-29T01:05:48.514Z,99.90
2018-03-29T01:08:15.356Z,99.90
2018-03-29T01:10:42.103Z,99.90
2018-03-29T01:13:08.848Z,99.90
2018-03-29T01:15:35.596Z,99.90
2018-03-29T01:18:02.460Z,99.90
2018-03-29T01:20:29.137Z,99.90
2018-03-29T01:22:57.367Z,99.90
2018-03-29T01:25:24.065Z,99.90
2018-03-29T01:27:51.576Z,99.90
2018-03-29T01:30:18.375Z,99.90
2018-03-29T01:32:45.111Z,99.90
2018-03-29T01:35:11.769Z,99.90
2018-03-29T01:37:38.561Z,99.90
2018-03-29T01:40:05.719Z,99.90
2018-03-29T01:42:32.568Z,99.90
2018-03-29T01:44:59.824Z,99.90
2018-03-29T01:47:26.468Z,99.90
2018-03-29T01:49:53.156Z,99.90
2018-03-29T01:52:19.884Z,99.90
2018-03-29T01:54:46.913Z,99.90
2018-03-29T01:57:13.659Z,99.90
2018-03-29T01:59:40.507Z,99.90
2018-03-29T02:02:07.252Z,99.90
2018-03-29T02:04:34.000Z,99.90
2018-03-29T02:07:00.745Z,99.90
2018-03-29T02:09:27.697Z,99.90
2018-03-29T02:11:54.416Z,99.90
2018-03-29T02:14:22.319Z,99.90
2018-03-29T02:16:49.165Z,99.90
2018-03-29T02:19:15.818Z,99.90
2018-03-29T02:21:42.656Z,99.90
2018-03-29T02:24:09.401Z,99.90
2018-03-29T02:26:36.148Z,99.90
2018-03-29T02:29:02.893Z,99.90
2018-03-29T02:31:30.664Z,99.90
2018-03-29T02:33:57.417Z,99.90
2018-03-29T02:36:24.261Z,99.90
2018-03-29T02:38:51.004Z,99.90
2018-03-29T02:41:17.955Z,99.90
2018-03-29T02:43:45.008Z,99.90
2018-03-29T02:46:11.859Z,99.90
2018-03-29T02:48:45.768Z,99.90
2018-03-29T02:51:12.824Z,99.90
2018-03-29T02:53:39.468Z,99.90
2018-03-29T02:56:06.313Z,99.90
2018-03-29T02:58:33.365Z,99.90
2018-03-29T03:01:00.115Z,99.90
2018-03-29T03:03:26.858Z,99.90
2018-03-29T03:05:53.586Z,99.90
2018-03-29T03:08:28.541Z,99.90
2018-03-29T03:10:55.518Z,99.90
2018-03-29T03:13:22.340Z,99.90
2018-03-29T03:15:49.288Z,99.90
2018-03-29T03:18:16.036Z,99.90
2018-03-29T03:20:42.987Z,99.90
2018-03-29T03:23:09.936Z,99.90
2018-03-29T03:25:36.783Z,99.90
2018-03-29T03:28:03.531Z,99.90
2018-03-29T03:30:30.485Z,99.90
2018-03-29T03:32:57.227Z,99.90
2018-03-29T03:35:24.076Z,99.90
2018-03-29T03:37:50.927Z,99.90
2018-03-29T03:40:17.878Z,99.90
2018-03-29T03:42:44.725Z,99.90
2018-03-29T03:45:11.576Z,99.90
2018-03-29T03:47:38.309Z,99.90
2018-03-29T03:50:04.981Z,99.90
2018-03-29T03:52:31.914Z,99.90
2018-03-29T03:54:58.909Z,99.90
2018-03-29T03:57:25.884Z,99.90
2018-03-29T03:59:52.664Z,99.90
2018-03-29T04:02:19.384Z,99.90
2018-03-29T04:04:47.240Z,99.90
2018-03-29T04:07:14.127Z,99.90
2018-03-29T04:09:40.824Z,99.90
2018-03-29T04:12:07.487Z,99.90
2018-03-29T04:14:34.152Z,99.90
2018-03-29T04:17:00.836Z,99.90
2018-03-29T04:19:27.484Z,99.90
2018-03-29T04:21:54.441Z,99.90
2018-03-29T04:24:21.153Z,99.90
2018-03-29T04:26:47.832Z,99.90
2018-03-29T04:29:14.539Z,99.90
2018-03-29T04:31:41.425Z,99.90
2018-03-29T04:34:08.845Z,99.90
2018-03-29T04:36:35.535Z,99.90
2018-03-29T04:39:02.445Z,99.90
2018-03-29T04:41:29.300Z,99.90
2018-03-29T04:43:56.044Z,99.90
2018-03-29T04:46:22.695Z,99.90
2018-03-29T04:48:49.536Z,99.90
2018-03-29T04:51:16.203Z,99.90
2018-03-29T04:53:42.856Z,99.90
2018-03-29T04:56:09.580Z,99.90
2018-03-29T04:58:36.237Z,99.90
2018-03-29T05:01:02.951Z,99.90
2018-03-29T05:03:29.691Z,99.90
2018-03-29T05:05:56.358Z,99.90
2018-03-29T05:08:23.015Z,99.90
2018-03-29T05:10:50.556Z,99.90
2018-03-29T05:13:17.408Z,99.90
2018-03-29T05:15:44.158Z,99.90
2018-03-29T05:18:11.002Z,99.90
2018-03-29T05:20:38.155Z,99.90
2018-03-29T05:23:04.903Z,99.90
2018-03-29T05:25:35.131Z,99.90
2018-03-29T05:28:01.827Z,99.90
2018-03-29T05:30:28.521Z,99.90
2018-03-29T05:32:55.190Z,99.90
2018-03-29T05:35:22.434Z,99.90
2018-03-29T05:37:50.282Z,99.90
2018-03-29T05:40:17.038Z,99.90
2018-03-29T05:42:43.785Z,99.90
2018-03-29T05:45:10.633Z,99.90
2018-03-29T05:47:37.378Z,99.90
2018-03-29T05:50:04.129Z,99.90
2018-03-29T05:52:30.872Z,99.90
2018-03-29T05:54:57.860Z,99.90
2018-03-29T05:57:25.081Z,99.70
2018-03-29T05:59:51.828Z,99.90
2018-03-29T06:02:18.881Z,99.90
2018-03-29T06:04:46.141Z,99.90
2018-03-29T06:07:12.806Z,99.90
2018-03-29T06:09:39.527Z,99.90
2018-03-29T06:12:06.580Z,99.90
2018-03-29T06:14:39.678Z,99.90
2018-03-29T06:17:06.408Z,93.60
2018-03-29T06:22:03.083Z,69.40
2018-03-29T06:24:29.762Z,69.30
2018-03-29T06:26:56.884Z,67.40
2018-03-29T06:29:23.789Z,62.80
2018-03-29T06:31:50.579Z,60.80
2018-03-29T06:34:17.289Z,62.10
2018-03-29T06:36:44.072Z,65.80
2018-03-29T06:39:10.743Z,66.80
2018-03-29T06:41:37.772Z,69.20
2018-03-29T06:44:04.810Z,71.80
2018-03-29T06:46:32.284Z,73.00
2018-03-29T06:48:59.087Z,73.00
2018-03-29T06:51:26.086Z,72.00
2018-03-29T06:53:52.832Z,72.30
2018-03-29T06:56:19.988Z,73.70
2018-03-29T06:58:46.959Z,75.80
2018-03-29T07:01:13.720Z,74.40
2018-03-29T07:03:41.519Z,72.60
2018-03-29T07:06:08.946Z,60.90
2018-03-29T07:08:35.702Z,61.00
2018-03-29T07:11:02.694Z,59.50
2018-03-29T07:13:29.463Z,55.30
2018-03-29T07:15:56.310Z,56.90
2018-03-29T07:18:23.055Z,59.60
2018-03-29T07:20:49.804Z,60.00
2018-03-29T07:23:16.652Z,60.90
2018-03-29T07:25:43.499Z,59.10
2018-03-29T07:28:10.248Z,56.60
2018-03-29T07:30:37.082Z,51.10
2018-03-29T07:33:03.775Z,48.00
2018-03-29T07:35:30.416Z,45.00
2018-03-29T07:37:58.053Z,45.00
2018-03-29T07:40:24.795Z,45.00
2018-03-29T07:42:53.385Z,41.70
2018-03-29T07:45:20.232Z,41.70
2018-03-29T07:47:47.286Z,42.60
2018-03-29T07:50:14.032Z,44.70
2018-03-29T07:52:40.779Z,45.10
2018-03-29T07:55:09.851Z,44.60
2018-03-29T07:57:37.889Z,48.10
2018-03-29T08:00:05.048Z,47.50
2018-03-29T08:02:31.745Z,45.50
2018-03-29T08:04:59.527Z,47.10
2018-03-29T08:07:26.269Z,47.10
2018-03-29T08:09:53.019Z,46.40
2018-03-29T08:12:20.380Z,50.80
2018-03-29T08:14:47.056Z,49.90
2018-03-29T08:17:14.011Z,52.10
2018-03-29T08:19:40.708Z,53.30
2018-03-29T08:22:07.366Z,53.00
2018-03-29T08:24:34.042Z,52.30
2018-03-29T08:27:00.782Z,54.10
2018-03-29T08:29:27.579Z,51.10
2018-03-29T08:31:56.192Z,58.00
2018-03-29T08:34:22.913Z,58.00
2018-03-29T08:36:51.821Z,57.70
2018-03-29T08:39:20.555Z,57.70
2018-03-29T08:41:48.984Z,54.00
2018-03-29T08:44:18.850Z,44.90
2018-03-29T08:46:45.798Z,44.90
2018-03-29T08:49:13.751Z,43.40
2018-03-29T08:51:41.008Z,44.40
2018-03-29T08:54:08.014Z,44.60
2018-03-29T08:56:35.516Z,42.30
2018-03-29T08:59:03.087Z,37.40
2018-03-29T09:01:29.778Z,37.30
2018-03-29T09:03:57.400Z,39.30
2018-03-29T09:06:24.350Z,39.50
2018-03-29T09:08:51.314Z,40.00
2018-03-29T09:11:18.251Z,40.70
2018-03-29T09:16:21.174Z,42.40
2018-03-29T09:18:47.932Z,40.90
2018-03-29T09:21:15.185Z,43.80
2018-03-29T09:23:42.434Z,46.50
2018-03-29T09:26:09.180Z,46.60
2018-03-29T09:28:36.954Z,45.20
2018-03-29T09:31:04.214Z,45.00
2018-03-29T09:33:31.164Z,44.80
2018-03-29T09:35:58.422Z,43.00
2018-03-29T09:38:25.780Z,46.70
2018-03-29T09:40:53.348Z,47.70
2018-03-29T09:43:20.398Z,47.70
2018-03-29T09:45:47.556Z,46.30
2018-03-29T09:48:14.302Z,48.00
2018-03-29T09:50:41.149Z,45.30
2018-03-29T09:53:08.000Z,45.70
2018-03-29T09:55:36.835Z,42.90
2018-03-29T09:58:04.056Z,42.90
2018-03-29T10:00:35.710Z,44.50
2018-03-29T10:03:08.495Z,49.90
2018-03-29T10:05:37.596Z,47.10
2018-03-29T10:08:06.803Z,45.20
2018-03-29T10:10:33.884Z,45.10
2018-03-29T10:13:01.622Z,42.80
2018-03-29T10:15:28.472Z,46.00
2018-03-29T10:17:55.730Z,43.20
2018-03-29T10:20:22.576Z,43.20
2018-03-29T10:22:49.940Z,43.10
2018-03-29T10:25:16.786Z,45.20
2018-03-29T10:27:43.840Z,44.80
2018-03-29T10:30:11.060Z,44.70
2018-03-29T10:32:39.891Z,43.40
2018-03-29T10:35:06.945Z,46.00
2018-03-29T10:37:33.693Z,47.60
2018-03-29T10:40:01.360Z,44.00
2018-03-29T10:42:28.514Z,45.60
2018-03-29T10:44:55.340Z,45.20
2018-03-29T10:47:23.442Z,45.70
2018-03-29T10:49:50.903Z,45.70
2018-03-29T10:52:17.683Z,46.60
2018-03-29T10:54:44.908Z,49.50
2018-03-29T10:57:12.372Z,45.00
2018-03-29T10:59:39.424Z,46.80
2018-03-29T11:02:06.787Z,45.30
2018-03-29T11:04:33.944Z,44.20
2018-03-29T11:07:00.893Z,45.80
2018-03-29T11:09:29.074Z,47.30
2018-03-29T11:11:56.125Z,47.10
2018-03-29T11:14:23.792Z,45.90
2018-03-29T11:16:51.154Z,45.90
2018-03-29T11:19:17.900Z,45.80
2018-03-29T11:21:44.648Z,48.00
2018-03-29T11:24:11.705Z,47.30
2018-03-29T11:26:38.445Z,47.90
2018-03-29T11:29:05.606Z,47.40
2018-03-29T11:31:32.758Z,48.50
2018-03-29T11:33:59.804Z,49.90
2018-03-29T11:36:26.559Z,48.10
2018-03-29T11:38:53.514Z,50.60
2018-03-29T11:41:20.974Z,50.40
2018-03-29T11:43:47.720Z,49.40
2018-03-29T11:46:14.570Z,48.50
2018-03-29T11:48:41.316Z,50.10
2018-03-29T11:51:07.968Z,44.90
2018-03-29T11:53:35.732Z,47.30
2018-03-29T11:56:02.478Z,48.90
2018-03-29T11:58:29.223Z,50.20
2018-03-29T12:00:56.482Z,47.50
2018-03-29T12:03:24.662Z,48.60
2018-03-29T12:05:52.534Z,48.50
2018-03-29T12:08:19.588Z,48.40
2018-03-29T12:10:46.497Z,46.90
2018-03-29T12:13:14.818Z,48.10
2018-03-29T12:15:41.672Z,48.00
2018-03-29T12:18:08.621Z,45.50
2018-03-29T12:20:35.366Z,47.30
2018-03-29T12:23:02.423Z,46.10
2018-03-29T12:25:29.681Z,46.90
2018-03-29T12:27:56.731Z,48.70
2018-03-29T12:30:23.478Z,47.20
2018-03-29T12:32:50.327Z,46.90
2018-03-29T12:35:17.180Z,50.50
2018-03-29T12:37:44.127Z,46.60
2018-03-29T12:40:11.186Z,46.80
2018-03-29T12:42:38.440Z,48.70
2018-03-29T12:45:05.649Z,49.80
2018-03-29T12:47:32.449Z,48.00
2018-03-29T12:49:59.193Z,46.40
2018-03-29T12:52:27.269Z,46.60
2018-03-29T12:55:06.197Z,46.60
2018-03-29T12:57:45.713Z,47.40
2018-03-29T13:00:12.500Z,46.70
2018-03-29T13:02:39.266Z,45.40
2018-03-29T13:05:06.074Z,48.20
2018-03-29T13:07:33.774Z,46.40
2018-03-29T13:10:00.585Z,45.40
2018-03-29T13:12:27.777Z,46.70
2018-03-29T13:14:55.412Z,48.90
2018-03-29T13:17:22.366Z,48.90
2018-03-29T13:19:49.522Z,47.50
2018-03-29T13:22:16.576Z,46.70
2018-03-29T13:24:43.323Z,47.10
2018-03-29T13:27:10.354Z,47.90
2018-03-29T13:29:37.530Z,48.00
2018-03-29T13:32:04.380Z,46.50
2018-03-29T13:34:31.536Z,46.70
2018-03-29T13:36:58.488Z,46.50
2018-03-29T13:39:25.354Z,48.00
2018-03-29T13:41:52.084Z,46.30
2018-03-29T13:44:19.956Z,47.10
2018-03-29T13:46:46.701Z,46.30
2018-03-29T13:49:13.432Z,48.40
2018-03-29T13:51:41.015Z,44.70
2018-03-29T13:54:08.068Z,44.80
2018-03-29T13:56:35.225Z,44.60
2018-03-29T13:59:02.291Z,46.50
2018-03-29T14:01:29.011Z,48.30
2018-03-29T14:03:55.773Z,45.40
2018-03-29T14:06:22.498Z,43.60
2018-03-29T14:08:49.985Z,45.30
2018-03-29T14:11:17.150Z,45.30
2018-03-29T14:13:45.009Z,43.70
2018-03-29T14:16:12.164Z,43.90
2018-03-29T14:18:39.218Z,46.00
2018-03-29T14:21:06.398Z,43.50
2018-03-29T14:23:33.576Z,45.00
2018-03-29T14:26:00.594Z,43.40
2018-03-29T14:28:27.768Z,44.50
2018-03-29T14:30:55.620Z,44.80
2018-03-29T14:33:22.972Z,45.90
2018-03-29T14:35:50.640Z,47.30
2018-03-29T14:38:17.697Z,45.60
2018-03-29T14:40:44.747Z,47.10
2018-03-29T14:43:12.313Z,45.90
2018-03-29T14:45:39.776Z,45.80
2018-03-29T14:48:06.954Z,45.70
2018-03-29T14:50:34.396Z,46.30
2018-03-29T14:53:01.452Z,45.50
2018-03-29T14:55:29.114Z,46.00
2018-03-29T14:57:56.477Z,45.90
2018-03-29T15:00:23.224Z,44.00
2018-03-29T15:02:50.688Z,43.60
2018-03-29T15:05:17.439Z,45.90
2018-03-29T15:07:45.035Z,46.90
2018-03-29T15:10:12.585Z,49.30
2018-03-29T15:12:40.231Z,52.00
2018-03-29T15:15:07.388Z,52.00
2018-03-29T15:17:34.544Z,50.70
2018-03-29T15:20:01.378Z,50.60
2018-03-29T15:22:28.449Z,51.80
2018-03-29T15:24:55.592Z,51.70
2018-03-29T15:27:23.473Z,52.30
2018-03-29T15:29:50.945Z,50.30
2018-03-29T15:32:17.683Z,52.80
2018-03-29T15:34:44.377Z,52.90
2018-03-29T15:37:11.791Z,53.10
2018-03-29T15:39:38.845Z,51.90
2018-03-29T15:42:06.103Z,53.60
2018-03-29T15:44:33.156Z,53.10
2018-03-29T15:47:00.216Z,53.50
2018-03-29T15:49:28.184Z,52.40
2018-03-29T15:51:55.752Z,52.40
2018-03-29T15:54:23.111Z,52.30
2018-03-29T15:56:50.778Z,52.70
2018-03-29T15:59:17.729Z,53.10
2018-03-29T16:01:44.581Z,53.00
2018-03-29T16:04:11.530Z,53.00
2018-03-29T16:06:38.280Z,53.70
2018-03-29T16:09:06.755Z,55.30
2018-03-29T16:11:33.818Z,55.20
2018-03-29T16:14:01.082Z,55.70
2018-03-29T16:16:28.333Z,55.70
2018-03-29T16:18:55.184Z,54.90
2018-03-29T16:21:22.033Z,54.40
2018-03-29T16:23:49.202Z,55.80
2018-03-29T16:26:16.038Z,55.80
2018-03-29T16:28:42.990Z,57.50
2018-03-29T16:31:09.837Z,58.60
2018-03-29T16:33:37.712Z,60.80
2018-03-29T16:36:05.690Z,60.80
2018-03-29T16:38:32.944Z,61.30
2018-03-29T16:40:59.996Z,62.20
2018-03-29T16:43:27.050Z,62.90
2018-03-29T16:45:54.716Z,64.10
2018-03-29T16:48:21.476Z,65.70
2018-03-29T16:50:48.619Z,64.50
2018-03-29T16:53:15.469Z,65.80
2018-03-29T16:55:46.207Z,65.70
2018-03-29T16:58:13.978Z,65.20
2018-03-29T17:00:40.723Z,66.60
2018-03-29T17:03:07.776Z,67.10
2018-03-29T17:05:34.940Z,66.30
2018-03-29T17:08:01.974Z,66.80
2018-03-29T17:10:29.654Z,67.20
2018-03-29T17:12:58.140Z,67.10
2018-03-29T17:15:25.280Z,68.80
2018-03-29T17:17:52.147Z,71.90
2018-03-29T17:20:18.896Z,72.80
2018-03-29T17:22:46.153Z,71.90
2018-03-29T17:25:12.880Z,75.60
2018-03-29T17:27:39.646Z,75.80
2018-03-29T17:30:07.326Z,79.80
2018-03-29T17:32:34.166Z,78.90
2018-03-29T17:35:01.523Z,81.70
2018-03-29T17:37:28.986Z,81.30
2018-03-29T17:39:55.777Z,83.50
2018-03-29T17:42:22.446Z,82.20
2018-03-29T17:44:49.912Z,83.60
2018-03-29T17:47:17.413Z,82.60
2018-03-29T17:49:45.051Z,82.60
2018-03-29T17:52:15.347Z,86.10
2018-03-29T17:54:42.152Z,86.10
2018-03-29T17:57:09.714Z,84.80
2018-03-29T17:59:36.868Z,84.80
2018-03-29T18:02:04.842Z,86.50
2018-03-29T18:04:33.123Z,89.00
2018-03-29T18:07:00.689Z,90.50
2018-03-29T18:09:29.190Z,90.90
2018-03-29T18:11:56.491Z,91.40
2018-03-29T18:14:23.224Z,91.90
2018-03-29T18:16:50.285Z,93.00
2018-03-29T18:19:18.110Z,93.90
2018-03-29T18:21:45.271Z,93.10
2018-03-29T18:24:13.019Z,92.90
2018-03-29T18:26:40.179Z,92.50
2018-03-29T18:29:07.551Z,92.60
2018-03-29T18:31:34.506Z,92.60
2018-03-29T18:34:02.668Z,92.10
2018-03-29T18:36:30.314Z,92.60
2018-03-29T18:38:57.339Z,92.90
2018-03-29T18:41:24.147Z,93.70
2018-03-29T18:43:58.365Z,92.40
2018-03-29T18:46:25.980Z,93.60
2018-03-29T18:48:53.450Z,94.60
2018-03-29T18:51:21.960Z,95.10
2018-03-29T18:53:49.000Z,95.20
2018-03-29T18:56:16.918Z,96.40
2018-03-29T18:58:43.898Z,96.30
2018-03-29T19:01:10.609Z,96.20
2018-03-29T19:03:37.458Z,96.60
2018-03-29T19:06:04.394Z,96.90
2018-03-29T19:08:31.179Z,97.20
2018-03-29T19:10:57.894Z,97.70
2018-03-29T19:13:25.059Z,98.60
2018-03-29T19:15:52.214Z,99.40
2018-03-29T19:18:18.964Z,99.30
2018-03-29T19:20:45.912Z,99.30
2018-03-29T19:23:13.578Z,99.30
2018-03-29T19:25:41.143Z,99.30
2018-03-29T19:28:08.300Z,98.30
2018-03-29T19:30:35.129Z,98.80
2018-03-29T19:33:02.818Z,98.30
2018-03-29T19:35:29.871Z,98.10
2018-03-29T19:37:56.617Z,98.70
2018-03-29T19:40:24.490Z,99.20
2018-03-29T19:42:51.647Z,99.70
2018-03-29T19:45:20.057Z,99.50
2018-03-29T19:47:46.888Z,99.90
2018-03-29T19:50:14.717Z,99.60
2018-03-29T19:52:42.544Z,99.60
2018-03-29T19:55:10.117Z,99.50
2018-03-29T19:57:37.308Z,99.90
2018-03-29T20:00:05.101Z,99.80
2018-03-29T20:02:32.675Z,99.90
2018-03-29T20:04:59.378Z,99.90
2018-03-29T20:07:27.884Z,99.90
2018-03-29T20:09:55.575Z,99.90
2018-03-29T20:12:22.842Z,99.90
2018-03-29T20:14:49.621Z,99.90
2018-03-29T20:17:17.559Z,99.90
2018-03-29T20:19:44.485Z,99.90
2018-03-29T20:22:12.524Z,99.90
2018-03-29T20:24:39.335Z,99.90
2018-03-29T20:27:06.289Z,99.90
2018-03-29T20:29:34.569Z,99.90
2018-03-29T20:32:01.612Z,99.90
2018-03-29T20:34:28.780Z,99.90
2018-03-29T20:36:55.511Z,99.90
2018-03-29T20:39:22.776Z,99.90
2018-03-29T20:41:49.780Z,99.90
2018-03-29T20:44:16.461Z,99.90
2018-03-29T20:46:44.559Z,99.90
2018-03-29T20:49:12.735Z,99.90
2018-03-29T20:51:40.030Z,99.90
2018-03-29T20:54:07.358Z,99.90
2018-03-29T20:56:35.051Z,99.90
2018-03-29T20:59:02.016Z,99.90
2018-03-29T21:01:29.529Z,99.90
2018-03-29T21:03:56.525Z,99.90
2018-03-29T21:06:23.208Z,99.90
2018-03-29T21:08:50.949Z,99.90
2018-03-29T21:11:17.806Z,99.90
2018-03-29T21:13:44.582Z,99.90
2018-03-29T21:16:12.307Z,99.90
2018-03-29T21:18:42.518Z,99.90
2018-03-29T21:21:09.860Z,99.90
2018-03-29T21:23:36.896Z,99.90
2018-03-29T21:26:04.659Z,99.90
2018-03-29T21:28:33.168Z,99.90
2018-03-29T21:31:00.017Z,99.90
2018-03-29T21:33:27.811Z,99.90
2018-03-29T21:35:54.753Z,99.90
2018-03-29T21:38:21.773Z,99.90
2018-03-29T21:40:49.768Z,99.90
2018-03-29T21:43:16.924Z,99.90
2018-03-29T21:45:43.907Z,99.90
2018-03-29T21:48:10.982Z,99.90
2018-03-29T21:50:38.008Z,99.90
2018-03-29T21:53:05.624Z,99.90
2018-03-29T21:55:34.417Z,99.90
2018-03-29T21:58:01.487Z,99.90
2018-03-29T22:00:28.416Z,99.90
2018-03-29T22:02:56.287Z,99.90
2018-03-29T22:05:22.972Z,99.90
2018-03-29T22:07:50.024Z,99.90
2018-03-29T22:10:16.866Z,99.90
2018-03-29T22:12:43.613Z,99.90
2018-03-29T22:15:11.374Z,99.90
2018-03-29T22:17:38.584Z,99.90
2018-03-29T22:20:07.075Z,99.90
2018-03-29T22:22:33.983Z,99.90
2018-03-29T22:25:00.655Z,99.90
2018-03-29T22:27:28.123Z,99.90
2018-03-29T22:29:56.201Z,99.90
2018-03-29T22:32:23.422Z,99.90
2018-03-29T22:34:51.151Z,99.90
2018-03-29T22:37:18.634Z,99.90
2018-03-29T22:39:46.785Z,99.90
2018-03-29T22:42:16.248Z,99.90
2018-03-29T22:44:43.753Z,99.90
2018-03-29T22:47:13.511Z,99.90
2018-03-29T22:49:41.749Z,99.90
2018-03-29T22:52:09.408Z,99.90
2018-03-29T22:54:37.022Z,99.90
2018-03-29T22:57:04.042Z,99.90
2018-03-29T22:59:35.107Z,99.90
2018-03-29T23:02:03.184Z,99.90
2018-03-29T23:04:30.226Z,99.90
2018-03-29T23:07:00.039Z,99.90
2018-03-29T23:09:27.034Z,99.90
2018-03-29T23:11:54.188Z,99.90
2018-03-29T23:14:22.342Z,99.90
2018-03-29T23:16:49.508Z,99.90
2018-03-29T23:19:17.702Z,99.90
2018-03-29T23:21:44.758Z,99.90
2018-03-29T23:24:11.436Z,99.90
2018-03-29T23:26:38.158Z,99.90
2018-03-29T23:29:04.894Z,99.90
2018-03-29T23:31:31.732Z,99.90
2018-03-29T23:33:58.797Z,99.90
2018-03-29T23:36:27.579Z,99.90
2018-03-29T23:38:54.834Z,99.90
2018-03-29T23:41:22.927Z,99.90
2018-03-29T23:43:50.504Z,99.90
2018-03-29T23:46:17.239Z,99.90
2018-03-29T23:48:44.394Z,99.90
2018-03-29T23:51:11.242Z,99.90
2018-03-29T23:53:38.246Z,99.90
2018-03-29T23:56:05.942Z,99.90
2018-03-29T23:58:33.839Z,99.90
